createdAt,value
2022-08-08T00:00:59.660Z,98159.41
2022-08-08T00:03:31.590Z,98154.69
2022-08-08T00:06:34.722Z,98154.31
2022-08-08T00:09:43.515Z,98139.38
2022-08-08T00:12:14.823Z,98133.06
2022-08-08T00:15:24.188Z,98145.47
2022-08-08T00:18:13.564Z,98138.69
2022-08-08T00:20:56.626Z,98151.47
2022-08-08T00:23:47.646Z,98147.81
2022-08-08T00:26:29.466Z,98151.97
2022-08-08T00:29:45.672Z,98137.16
2022-08-08T00:32:35.474Z,98150.59
2022-08-08T00:35:21.371Z,98151.72
2022-08-08T00:38:01.204Z,98156.50
2022-08-08T00:41:09.933Z,98142.50
2022-08-08T00:43:24.658Z,98143.53
2022-08-08T00:46:17.959Z,98149.50
2022-08-08T00:49:22.821Z,98150.66
2022-08-08T00:52:29.082Z,98153.13
2022-08-08T00:55:35.936Z,98143.41
2022-08-08T00:58:31.936Z,98165.28
2022-08-08T01:01:19.632Z,98159.38
2022-08-08T01:04:29.880Z,98152.94
2022-08-08T01:07:11.624Z,98160.78
2022-08-08T01:09:53.473Z,98157.88
2022-08-08T01:12:29.792Z,98157.94
2022-08-08T01:15:44.370Z,98151.56
2022-08-08T01:18:52.457Z,98143.78
2022-08-08T01:22:09.893Z,98148.13
2022-08-08T01:24:57.246Z,98142.94
2022-08-08T01:27:59.312Z,98143.38
2022-08-08T01:30:26.878Z,98146.69
2022-08-08T01:33:23.930Z,98144.22
2022-08-08T01:36:19.523Z,98153.53
2022-08-08T01:39:23.421Z,98133.97
2022-08-08T01:41:59.874Z,98141.59
2022-08-08T01:45:00.922Z,98148.19
2022-08-08T01:48:15.046Z,98149.81
2022-08-08T01:50:58.237Z,98146.19
2022-08-08T01:54:33.245Z,98144.97
2022-08-08T01:56:42.379Z,98149.09
2022-08-08T01:59:38.061Z,98152.03
2022-08-08T02:02:41.352Z,98154.34
2022-08-08T02:05:33.922Z,98147.84
2022-08-08T02:08:45.683Z,98146.06
2022-08-08T02:11:52.875Z,98160.13
2022-08-08T02:14:55.240Z,98155.16
2022-08-08T02:17:54.219Z,98157.66
2022-08-08T02:21:01.104Z,98166.94
2022-08-08T02:23:31.786Z,98155.97
2022-08-08T02:26:25.387Z,98163.41
2022-08-08T02:29:46.681Z,98160.34
2022-08-08T02:32:37.803Z,98171.47
2022-08-08T02:35:35.791Z,98171.06
2022-08-08T02:38:35.087Z,98159.94
2022-08-08T02:41:58.942Z,98161.78
2022-08-08T02:44:56.195Z,98166.75
2022-08-08T02:48:01.942Z,98162.00
2022-08-08T02:50:55.550Z,98158.31
2022-08-08T02:53:53.413Z,98152.75
2022-08-08T02:56:23.315Z,98156.25
2022-08-08T02:59:57.181Z,98154.00
2022-08-08T03:02:53.224Z,98141.22
2022-08-08T03:05:58.892Z,98149.44
2022-08-08T03:08:44.456Z,98148.63
2022-08-08T03:11:47.716Z,98158.13
2022-08-08T03:15:58.222Z,98152.53
2022-08-08T03:17:39.774Z,98160.16
2022-08-08T03:20:08.259Z,98161.59
2022-08-08T03:22:56.969Z,98147.78
2022-08-08T03:25:35.961Z,98157.47
2022-08-08T03:28:07.505Z,98157.25
2022-08-08T03:30:34.631Z,98145.28
2022-08-08T03:33:55.109Z,98142.41
2022-08-08T03:36:10.545Z,98158.69
2022-08-08T03:38:56.240Z,98156.22
2022-08-08T03:42:28.067Z,98168.38
2022-08-08T03:44:25.560Z,98161.56
2022-08-08T03:46:55.410Z,98163.84
2022-08-08T03:49:59.010Z,98170.25
2022-08-08T03:52:14.158Z,98167.16
2022-08-08T03:55:01.779Z,98170.44
2022-08-08T03:58:30.720Z,98156.66
2022-08-08T04:00:19.616Z,98169.22
2022-08-08T04:03:02.087Z,98171.06
2022-08-08T04:05:39.959Z,98166.13
2022-08-08T04:08:33.241Z,98178.25
2022-08-08T04:11:11.056Z,98177.59
2022-08-08T04:14:02.645Z,98171.38
2022-08-08T04:16:40.071Z,98175.50
2022-08-08T04:19:25.141Z,98180.28
2022-08-08T04:21:54.373Z,98156.97
2022-08-08T04:24:28.629Z,98175.69
2022-08-08T04:26:57.509Z,98188.69
2022-08-08T04:29:27.287Z,98182.50
2022-08-08T04:31:58.876Z,98191.38
2022-08-08T04:34:31.982Z,98186.81
2022-08-08T04:37:10.669Z,98199.78
2022-08-08T04:40:03.378Z,98190.47
2022-08-08T04:42:27.066Z,98186.34
2022-08-08T04:44:59.532Z,98205.34
2022-08-08T04:47:27.345Z,98196.91
2022-08-08T04:49:58.977Z,98204.91
2022-08-08T04:52:33.801Z,98213.53
2022-08-08T04:55:04.272Z,98213.53
2022-08-08T04:57:34.439Z,98211.69
2022-08-08T05:00:02.120Z,98226.91
2022-08-08T05:02:30.934Z,98223.97
2022-08-08T05:04:59.928Z,98215.53
2022-08-08T05:07:37.687Z,98224.81
2022-08-08T05:25:07.741Z,98239.69
2022-08-08T05:27:41.309Z,98241.13
2022-08-08T05:30:10.982Z,98244.44
2022-08-08T05:32:39.354Z,98239.06
2022-08-08T05:35:07.343Z,98268.56
2022-08-08T05:37:53.051Z,98269.44
2022-08-08T05:40:28.650Z,98258.75
2022-08-08T05:43:38.628Z,98272.59
2022-08-08T05:46:01.970Z,98263.13
2022-08-08T05:48:32.968Z,98282.09
2022-08-08T05:51:14.418Z,98275.31
2022-08-08T05:56:42.522Z,98242.94
2022-08-08T06:00:01.283Z,98285.00
2022-08-08T06:02:39.094Z,98272.41
2022-08-08T06:05:34.815Z,98277.19
2022-08-08T06:08:02.181Z,98291.22
2022-08-08T06:10:33.591Z,98287.94
2022-08-08T06:13:01.849Z,98306.66
2022-08-08T06:15:50.230Z,98299.25
2022-08-08T06:18:21.967Z,98298.63
2022-08-08T06:20:56.301Z,98314.25
2022-08-08T06:23:29.172Z,98303.91
2022-08-08T06:26:38.749Z,98314.03
2022-08-08T06:29:18.681Z,98312.72
2022-08-08T06:32:09.803Z,98319.75
2022-08-08T06:34:40.240Z,98314.66
2022-08-08T06:37:24.770Z,98310.28
2022-08-08T06:39:56.960Z,98303.06
2022-08-08T06:42:24.240Z,98306.50
2022-08-08T06:44:53.383Z,98316.41
2022-08-08T06:47:22.367Z,98307.78
2022-08-08T06:49:56.735Z,98303.41
2022-08-08T06:52:23.976Z,98313.22
2022-08-08T06:54:58.696Z,98313.50
2022-08-08T06:57:29.344Z,98316.59
2022-08-08T07:00:12.838Z,98316.09
2022-08-08T07:02:45.313Z,98309.50
2022-08-08T07:05:24.853Z,98313.06
2022-08-08T07:08:05.605Z,98310.56
2022-08-08T07:10:47.625Z,98308.69
2022-08-08T07:13:25.179Z,98317.66
2022-08-08T07:16:10.235Z,98311.38
2022-08-08T07:19:16.374Z,98317.41
2022-08-08T07:22:00.531Z,98312.94
2022-08-08T07:24:50.003Z,98317.59
2022-08-08T07:27:35.078Z,98315.69
2022-08-08T07:30:14.837Z,98323.66
2022-08-08T07:32:43.842Z,98313.56
2022-08-08T07:35:11.269Z,98318.06
2022-08-08T07:37:56.129Z,98321.56
2022-08-08T07:40:32.236Z,98314.03
2022-08-08T07:43:04.219Z,98312.31
2022-08-08T07:46:05.947Z,98277.88
2022-08-08T07:48:29.979Z,98310.94
2022-08-08T07:51:00.880Z,98294.78
2022-08-08T07:54:01.459Z,98299.09
2022-08-08T07:56:37.334Z,98310.94
2022-08-08T07:59:15.772Z,98293.19
2022-08-08T08:02:34.281Z,98297.63
2022-08-08T08:04:49.422Z,98303.34
2022-08-08T08:07:26.055Z,98317.94
2022-08-08T08:10:03.714Z,98309.75
2022-08-08T08:12:35.718Z,98303.44
2022-08-08T08:15:11.965Z,98294.69
2022-08-08T08:17:55.455Z,98287.72
2022-08-08T08:20:29.785Z,98298.66
2022-08-08T08:22:57.704Z,98280.28
2022-08-08T08:25:43.720Z,98307.22
2022-08-08T08:28:21.078Z,98301.03
2022-08-08T08:30:50.114Z,98298.91
2022-08-08T08:33:16.819Z,98270.03
2022-08-08T08:36:19.379Z,98288.56
2022-08-08T08:38:33.328Z,98312.50
2022-08-08T08:41:01.314Z,98298.91
2022-08-08T08:43:34.654Z,98285.25
2022-08-08T08:46:03.329Z,98289.72
2022-08-08T08:48:31.334Z,98301.06
2022-08-08T08:51:01.405Z,98291.03
2022-08-08T08:53:59.755Z,98285.97
2022-08-08T08:56:25.271Z,98292.06
2022-08-08T08:58:56.818Z,98273.66
2022-08-08T09:01:28.476Z,98265.72
2022-08-08T09:04:01.262Z,98300.41
2022-08-08T09:06:34.354Z,98291.22
2022-08-08T09:09:18.734Z,98297.06
2022-08-08T09:12:02.288Z,98293.13
2022-08-08T09:14:35.658Z,98293.84
2022-08-08T09:17:15.732Z,98294.88
2022-08-08T09:21:57.488Z,98280.97
2022-08-08T09:22:35.249Z,98289.69
2022-08-08T09:25:04.810Z,98282.31
2022-08-08T09:27:55.743Z,98267.66
2022-08-08T09:30:23.013Z,98278.06
2022-08-08T09:33:12.858Z,98284.19
2022-08-08T09:35:49.171Z,98279.09
2022-08-08T09:38:53.211Z,98279.34
2022-08-08T09:42:14.582Z,98278.38
2022-08-08T09:44:46.878Z,98284.13
2022-08-08T09:47:25.831Z,98277.16
2022-08-08T09:50:21.252Z,98270.66
2022-08-08T09:52:59.091Z,98272.13
2022-08-08T09:56:05.108Z,98278.56
2022-08-08T09:58:27.701Z,98264.44
2022-08-08T10:01:14.558Z,98257.31
2022-08-08T10:03:58.189Z,98274.53
2022-08-08T10:06:30.221Z,98263.16
2022-08-08T10:09:00.142Z,98259.59
2022-08-08T10:12:25.949Z,98265.75
2022-08-08T10:14:30.956Z,98264.28
2022-08-08T10:17:57.378Z,98260.47
2022-08-08T10:20:00.743Z,98249.97
2022-08-08T10:22:32.342Z,98241.22
2022-08-08T10:25:05.332Z,98252.13
2022-08-08T10:27:42.112Z,98230.03
2022-08-08T10:30:16.230Z,98242.06
2022-08-08T10:33:00.338Z,98227.50
2022-08-08T10:36:19.912Z,98247.41
2022-08-08T10:38:19.690Z,98240.41
2022-08-08T10:40:51.824Z,98240.13
2022-08-08T10:43:20.008Z,98238.81
2022-08-08T10:45:56.194Z,98232.44
2022-08-08T10:48:58.480Z,98233.63
2022-08-08T10:51:24.183Z,98237.13
2022-08-08T10:53:57.103Z,98230.84
2022-08-08T10:56:27.161Z,98232.00
2022-08-08T10:59:08.225Z,98232.72
2022-08-08T11:01:37.653Z,98226.34
2022-08-08T11:04:10.524Z,98223.34
2022-08-08T11:06:41.737Z,98229.16
2022-08-08T11:09:19.386Z,98234.44
2022-08-08T11:12:06.024Z,98233.53
2022-08-08T11:14:34.799Z,98222.94
2022-08-08T11:17:03.145Z,98222.59
2022-08-08T11:19:34.256Z,98220.16
2022-08-08T11:22:04.200Z,98227.03
2022-08-08T11:24:35.831Z,98228.59
2022-08-08T11:27:10.759Z,98218.19
2022-08-08T11:30:04.125Z,98213.75
2022-08-08T11:32:42.954Z,98206.84
2022-08-08T11:35:27.337Z,98212.28
2022-08-08T11:38:39.130Z,98190.84
2022-08-08T11:40:52.699Z,98201.25
2022-08-08T11:43:21.562Z,98201.81
2022-08-08T11:46:09.753Z,98185.19
2022-08-08T11:48:38.688Z,98206.00
2022-08-08T11:51:29.470Z,98206.31
2022-08-08T11:53:59.203Z,98208.44
2022-08-08T11:56:34.534Z,98204.13
2022-08-08T11:59:09.989Z,98203.94
2022-08-08T12:01:37.324Z,98183.81
2022-08-08T12:04:06.960Z,98194.69
2022-08-08T12:06:34.067Z,98193.69
2022-08-08T12:09:17.304Z,98195.53
2022-08-08T12:11:49.562Z,98182.56
2022-08-08T12:14:23.701Z,98189.22
2022-08-08T12:16:53.336Z,98185.13
2022-08-08T12:19:31.148Z,98186.34
2022-08-08T12:22:08.856Z,98170.13
2022-08-08T12:24:54.309Z,98185.19
2022-08-08T12:27:26.659Z,98185.56
2022-08-08T12:30:00.064Z,98164.81
2022-08-08T12:32:34.552Z,98165.34
2022-08-08T12:35:13.591Z,98176.53
2022-08-08T12:37:48.182Z,98164.78
2022-08-08T12:40:56.022Z,98174.25
2022-08-08T12:43:46.192Z,98160.97
2022-08-08T12:46:25.393Z,98138.56
2022-08-08T12:51:58.432Z,98126.25
2022-08-08T12:54:33.338Z,98137.59
2022-08-08T12:57:17.527Z,98154.22
2022-08-08T13:00:05.418Z,98152.56
2022-08-08T13:02:42.041Z,98148.63
2022-08-08T13:05:26.928Z,98155.28
2022-08-08T13:08:20.743Z,98151.94
2022-08-08T13:10:56.155Z,98136.84
2022-08-08T13:13:35.128Z,98141.34
2022-08-08T13:16:25.670Z,98147.06
2022-08-08T13:19:00.622Z,98139.63
2022-08-08T13:21:53.832Z,98137.09
2022-08-08T13:24:42.228Z,98143.28
2022-08-08T13:27:17.088Z,98132.38
2022-08-08T13:29:54.397Z,98131.00
2022-08-08T13:32:23.828Z,98117.78
2022-08-08T13:34:56.419Z,98135.22
2022-08-08T13:37:28.045Z,98130.66
2022-08-08T13:40:18.137Z,98113.03
2022-08-08T13:42:55.619Z,98125.00
2022-08-08T13:45:24.378Z,98137.00
2022-08-08T13:48:03.026Z,98123.22
2022-08-08T13:50:43.175Z,98126.06
2022-08-08T13:53:31.434Z,98133.47
2022-08-08T13:56:05.410Z,98119.50
2022-08-08T13:58:33.233Z,98125.22
2022-08-08T14:01:32.959Z,98126.88
2022-08-08T14:04:23.133Z,98127.63
2022-08-08T14:06:59.267Z,98126.16
2022-08-08T14:10:05.254Z,98112.00
2022-08-08T14:12:30.720Z,98115.34
2022-08-08T14:14:59.462Z,98105.75
2022-08-08T14:17:58.105Z,98108.28
2022-08-08T14:20:15.809Z,98100.25
2022-08-08T14:23:30.069Z,98103.88
2022-08-08T14:26:10.429Z,98085.97
2022-08-08T14:28:39.740Z,98102.50
2022-08-08T14:31:11.518Z,98090.41
2022-08-08T14:33:57.967Z,98089.75
2022-08-08T14:36:36.309Z,98079.72
2022-08-08T14:39:11.757Z,98072.94
2022-08-08T14:41:54.002Z,98095.34
2022-08-08T14:44:33.651Z,98090.44
2022-08-08T14:47:02.694Z,98077.50
2022-08-08T14:50:06.759Z,98081.44
2022-08-08T14:53:04.257Z,98075.59
2022-08-08T14:55:42.087Z,98081.53
2022-08-08T14:58:11.654Z,98079.56
2022-08-08T15:00:43.390Z,98064.50
2022-08-08T15:03:15.706Z,98072.50
2022-08-08T15:05:54.318Z,98065.56
2022-08-08T15:08:35.366Z,98070.44
2022-08-08T15:11:09.064Z,98061.75
2022-08-08T15:13:40.912Z,98078.34
2022-08-08T15:16:23.201Z,98055.84
2022-08-08T15:18:53.347Z,98059.88
2022-08-08T15:21:22.693Z,98054.97
2022-08-08T15:23:54.454Z,98077.97
2022-08-08T15:26:25.587Z,98050.75
2022-08-08T15:28:54.151Z,98058.38
2022-08-08T15:31:41.537Z,98055.59
2022-08-08T15:34:28.888Z,98071.25
2022-08-08T15:36:58.071Z,98069.19
2022-08-08T15:39:25.818Z,98055.94
2022-08-08T15:41:55.530Z,98059.75
2022-08-08T15:44:25.246Z,98055.91
2022-08-08T15:46:54.947Z,98053.09
2022-08-08T15:49:24.425Z,98058.97
2022-08-08T15:51:54.916Z,98062.19
2022-08-08T15:54:38.896Z,98065.06
2022-08-08T15:57:09.228Z,98066.94
2022-08-08T16:00:05.177Z,98065.66
2022-08-08T16:02:28.858Z,98028.59
2022-08-08T16:04:59.101Z,98054.75
2022-08-08T16:07:39.463Z,98036.28
2022-08-08T16:13:14.106Z,98040.53
2022-08-08T16:13:27.675Z,98042.91
2022-08-08T16:15:57.630Z,98041.84
2022-08-08T16:18:27.660Z,98042.66
2022-08-08T16:21:00.576Z,98036.66
2022-08-08T16:23:31.893Z,98025.88
2022-08-08T16:26:05.064Z,98047.84
2022-08-08T16:28:41.359Z,98037.75
2022-08-08T16:31:09.249Z,98049.34
2022-08-08T16:33:39.176Z,98025.78
2022-08-08T16:36:09.649Z,98028.84
2022-08-08T16:38:40.440Z,98038.69
2022-08-08T16:41:20.148Z,98045.72
2022-08-08T16:43:51.232Z,98034.81
2022-08-08T16:46:36.595Z,98034.81
2022-08-08T16:49:08.057Z,98025.09
2022-08-08T16:55:03.232Z,98047.19
2022-08-08T16:55:04.693Z,98045.28
2022-08-08T16:58:12.830Z,98045.88
2022-08-08T17:00:09.298Z,98047.03
2022-08-08T17:02:44.534Z,98041.44
2022-08-08T17:05:12.883Z,98039.81
2022-08-08T17:07:40.913Z,98034.72
2022-08-08T17:10:09.722Z,98030.97
2022-08-08T17:12:37.264Z,98044.69
2022-08-08T17:15:17.933Z,98033.75
2022-08-08T17:18:03.088Z,98029.41
2022-08-08T17:20:39.570Z,98045.56
2022-08-08T17:23:18.464Z,98029.53
2022-08-08T17:25:54.161Z,98054.19
2022-08-08T17:28:34.227Z,98051.13
2022-08-08T17:31:15.087Z,98020.66
2022-08-08T17:34:53.451Z,98062.03
2022-08-08T17:36:55.151Z,98056.19
2022-08-08T17:40:03.748Z,98035.19
2022-08-08T17:42:19.548Z,98055.22
2022-08-08T17:44:49.659Z,98046.81
2022-08-08T17:47:23.774Z,98028.91
2022-08-08T17:49:52.601Z,98030.88
2022-08-08T17:52:23.171Z,98056.47
2022-08-08T17:54:55.858Z,98060.75
2022-08-08T17:57:28.848Z,98061.59
2022-08-08T18:00:02.415Z,98067.50
2022-08-08T18:02:30.043Z,98050.03
2022-08-08T18:04:58.781Z,98075.84
2022-08-08T18:08:04.011Z,98049.66
2022-08-08T18:10:16.715Z,98069.13
2022-08-08T18:12:45.937Z,98061.31
2022-08-08T18:15:13.582Z,98079.53
2022-08-08T18:18:09.061Z,98081.91
2022-08-08T18:20:43.132Z,98067.50
2022-08-08T18:23:15.294Z,98072.28
2022-08-08T18:25:43.108Z,98076.03
2022-08-08T18:28:13.731Z,98085.25
2022-08-08T18:30:41.534Z,98090.09
2022-08-08T18:33:20.291Z,98098.41
2022-08-08T18:36:02.999Z,98088.47
2022-08-08T18:38:30.057Z,98085.31
2022-08-08T18:40:56.613Z,98092.25
2022-08-08T18:43:43.215Z,98095.34
2022-08-08T18:46:56.351Z,98101.69
2022-08-08T18:48:57.891Z,98104.81
2022-08-08T18:51:52.743Z,98105.94
2022-08-08T18:54:22.410Z,98113.69
2022-08-08T18:56:51.351Z,98108.59
2022-08-08T18:59:17.916Z,98105.13
2022-08-08T19:02:26.846Z,98106.56
2022-08-08T19:04:32.297Z,98121.06
2022-08-08T19:07:02.961Z,98114.88
2022-08-08T19:09:48.931Z,98117.09
2022-08-08T19:12:17.565Z,98127.22
2022-08-08T19:14:46.745Z,98128.06
2022-08-08T19:17:29.261Z,98128.06
2022-08-08T19:20:02.524Z,98130.56
2022-08-08T19:22:30.011Z,98133.03
2022-08-08T19:26:01.610Z,98141.00
2022-08-08T19:27:56.847Z,98148.88
2022-08-08T19:30:27.084Z,98145.13
2022-08-08T19:33:00.619Z,98148.13
2022-08-08T19:35:45.206Z,98148.38
2022-08-08T19:38:16.454Z,98162.78
2022-08-08T19:40:44.138Z,98176.94
2022-08-08T19:43:12.024Z,98156.25
2022-08-08T19:45:57.291Z,98168.50
2022-08-08T19:48:30.840Z,98180.72
2022-08-08T19:51:01.502Z,98176.31
2022-08-08T19:53:53.223Z,98168.94
2022-08-08T19:56:25.923Z,98195.00
2022-08-08T19:59:08.072Z,98198.75
2022-08-08T20:02:01.365Z,98193.28
2022-08-08T20:04:22.422Z,98200.91
2022-08-08T20:06:50.869Z,98201.66
2022-08-08T20:09:22.643Z,98210.63
2022-08-08T20:11:50.665Z,98210.59
2022-08-08T20:14:34.755Z,98221.44
2022-08-08T20:17:04.294Z,98216.53
2022-08-08T20:19:34.334Z,98212.47
2022-08-08T20:22:13.352Z,98221.16
2022-08-08T20:24:47.985Z,98221.88
2022-08-08T20:27:20.511Z,98226.72
2022-08-08T20:29:55.642Z,98229.72
2022-08-08T20:32:31.796Z,98229.94
2022-08-08T20:35:02.521Z,98211.38
2022-08-08T20:37:46.775Z,98217.31
2022-08-08T20:40:17.619Z,98198.69
2022-08-08T20:43:00.602Z,98211.97
2022-08-08T20:45:55.218Z,98220.09
2022-08-08T20:48:15.823Z,98249.72
2022-08-08T20:50:47.748Z,98219.13
2022-08-08T20:53:16.670Z,98228.38
2022-08-08T20:56:01.368Z,98225.59
2022-08-08T20:58:28.294Z,98240.00
2022-08-08T21:00:57.336Z,98229.84
2022-08-08T21:03:23.920Z,98232.81
2022-08-08T21:05:58.993Z,98223.22
2022-08-08T21:08:36.913Z,98245.50
2022-08-08T21:11:13.363Z,98252.84
2022-08-08T21:13:41.154Z,98233.97
2022-08-08T21:16:18.134Z,98256.28
2022-08-08T21:18:57.267Z,98254.28
2022-08-08T21:21:41.387Z,98246.28
2022-08-08T21:24:24.068Z,98230.94
2022-08-08T21:26:56.650Z,98258.66
2022-08-08T21:30:05.432Z,98252.59
2022-08-08T21:32:14.372Z,98251.97
2022-08-08T21:34:49.579Z,98250.84
2022-08-08T21:37:18.966Z,98226.13
2022-08-08T21:39:56.461Z,98226.03
2022-08-08T21:42:23.953Z,98252.16
2022-08-08T21:44:58.833Z,98236.63
2022-08-08T21:48:07.163Z,98259.03
2022-08-08T21:50:14.321Z,98265.19
2022-08-08T21:54:22.983Z,98260.78
2022-08-08T21:56:20.160Z,98255.94
2022-08-08T21:58:14.894Z,98246.34
2022-08-08T22:00:44.050Z,98253.97
2022-08-08T22:03:11.166Z,98263.72
2022-08-08T22:05:42.185Z,98230.06
2022-08-08T22:08:09.385Z,98262.50
2022-08-08T22:10:37.732Z,98256.75
2022-08-08T22:13:18.817Z,98253.50
2022-08-08T22:15:58.604Z,98258.81
2022-08-08T22:18:27.580Z,98260.97
2022-08-08T22:20:55.792Z,98255.91
2022-08-08T22:23:25.303Z,98248.53
2022-08-08T22:26:27.192Z,98252.53
2022-08-08T22:29:04.576Z,98244.38
2022-08-08T22:31:29.703Z,98265.69
2022-08-08T22:34:13.841Z,98247.47
2022-08-08T22:36:42.938Z,98266.06
2022-08-08T22:39:18.918Z,98259.81
2022-08-08T22:41:46.128Z,98266.41
2022-08-08T22:44:15.894Z,98269.75
2022-08-08T22:46:42.737Z,98246.06
2022-08-08T22:49:12.471Z,98249.06
2022-08-08T22:51:46.692Z,98266.41
2022-08-08T22:54:30.676Z,98282.03
2022-08-08T22:57:01.158Z,98275.03
2022-08-08T22:59:36.348Z,98278.81
2022-08-08T23:02:14.428Z,98280.91
2022-08-08T23:04:58.541Z,98289.00
2022-08-08T23:07:51.370Z,98275.28
2022-08-08T23:10:21.286Z,98283.59
2022-08-08T23:12:51.706Z,98299.78
2022-08-08T23:16:37.815Z,98299.22
2022-08-08T23:18:11.789Z,98292.84
2022-08-08T23:20:39.342Z,98291.66
2022-08-08T23:23:05.910Z,98274.53
2022-08-08T23:25:45.067Z,98291.22
2022-08-08T23:28:14.322Z,98281.91
2022-08-08T23:30:41.947Z,98276.28
2022-08-08T23:33:19.063Z,98295.50
2022-08-08T23:36:06.683Z,98294.78
2022-08-08T23:38:34.315Z,98290.53
2022-08-08T23:41:00.869Z,98289.97
2022-08-08T23:43:31.599Z,98274.41
2022-08-08T23:49:07.122Z,98281.69
2022-08-08T23:49:18.170Z,98266.97
2022-08-08T23:52:05.840Z,98291.97
2022-08-08T23:54:41.696Z,98273.97
2022-08-08T23:57:26.887Z,98293.19
